createdAt,value
2023-03-19T00:02:49.896Z,69.37
2023-03-19T00:05:54.063Z,70.06
2023-03-19T00:08:56.883Z,70.33
2023-03-19T00:12:01.061Z,70.09
2023-03-19T00:15:03.956Z,70.36
2023-03-19T00:18:07.680Z,71.53
2023-03-19T00:21:10.805Z,71.52
2023-03-19T00:24:14.072Z,71.43
2023-03-19T00:27:18.805Z,72.13
2023-03-19T00:30:22.732Z,72.16
2023-03-19T00:33:26.534Z,71.77
2023-03-19T00:36:30.372Z,72.23
2023-03-19T00:39:33.660Z,71.88
2023-03-19T00:42:37.840Z,72.10
2023-03-19T00:45:41.451Z,72.51
2023-03-19T00:48:44.444Z,71.81
2023-03-19T00:51:47.830Z,71.78
2023-03-19T00:54:51.063Z,71.61
2023-03-19T00:57:56.050Z,73.01
2023-03-19T01:00:58.952Z,72.61
2023-03-19T01:04:01.811Z,72.33
2023-03-19T01:07:04.918Z,72.24
2023-03-19T01:10:08.633Z,72.37
2023-03-19T01:13:13.308Z,72.76
2023-03-19T01:16:16.379Z,72.52
2023-03-19T01:19:20.156Z,72.58
2023-03-19T01:22:22.986Z,73.59
2023-03-19T01:25:25.787Z,73.02
2023-03-19T01:28:30.060Z,74.00
2023-03-19T01:31:33.003Z,73.24
2023-03-19T01:34:36.740Z,73.45
2023-03-19T01:37:39.500Z,74.05
2023-03-19T01:40:46.032Z,73.56
2023-03-19T01:43:50.870Z,73.23
2023-03-19T01:46:54.128Z,74.00
2023-03-19T01:49:58.345Z,72.99
2023-03-19T01:53:01.956Z,72.34
2023-03-19T01:56:09.805Z,71.25
2023-03-19T01:59:18.457Z,70.37
2023-03-19T02:02:26.241Z,68.68
2023-03-19T02:05:29.790Z,67.31
2023-03-19T02:08:35.016Z,66.20
2023-03-19T02:11:39.001Z,66.35
2023-03-19T02:14:43.400Z,67.22
2023-03-19T02:17:47.576Z,67.16
2023-03-19T02:20:56.672Z,68.60
2023-03-19T02:24:08.441Z,70.91
2023-03-19T02:27:13.129Z,73.88
2023-03-19T02:30:22.215Z,75.73
2023-03-19T02:33:25.089Z,77.53
2023-03-19T02:36:32.911Z,79.20
2023-03-19T02:39:41.242Z,81.38
2023-03-19T02:42:45.574Z,81.72
2023-03-19T02:45:48.825Z,82.68
2023-03-19T02:48:52.649Z,84.20
2023-03-19T02:51:55.488Z,84.79
2023-03-19T02:54:58.293Z,85.53
2023-03-19T02:58:02.495Z,86.05
2023-03-19T03:01:06.394Z,86.62
2023-03-19T03:04:09.647Z,86.25
2023-03-19T03:07:12.977Z,86.45
2023-03-19T03:10:15.801Z,86.87
2023-03-19T03:13:20.016Z,86.82
2023-03-19T03:16:23.013Z,86.95
2023-03-19T03:19:25.927Z,86.97
2023-03-19T03:22:28.995Z,87.43
2023-03-19T03:25:31.749Z,87.33
2023-03-19T03:28:35.850Z,87.25
2023-03-19T03:31:38.763Z,87.10
2023-03-19T03:34:42.100Z,87.20
2023-03-19T03:37:44.866Z,87.91
2023-03-19T03:40:51.588Z,87.55
2023-03-19T03:43:56.368Z,88.37
2023-03-19T03:46:59.280Z,87.99
2023-03-19T03:50:01.990Z,89.07
2023-03-19T03:53:04.973Z,89.22
2023-03-19T03:56:08.570Z,90.09
2023-03-19T03:59:12.934Z,89.52
2023-03-19T04:02:15.932Z,89.76
2023-03-19T04:05:19.170Z,88.74
2023-03-19T04:08:22.605Z,89.32
2023-03-19T04:11:25.895Z,89.07
2023-03-19T04:14:30.407Z,89.74
2023-03-19T04:17:33.310Z,88.74
2023-03-19T04:20:36.683Z,88.45
2023-03-19T04:23:39.516Z,88.58
2023-03-19T04:26:42.463Z,89.29
2023-03-19T04:29:46.670Z,89.24
2023-03-19T04:32:49.458Z,89.08
2023-03-19T04:35:52.324Z,89.07
2023-03-19T04:38:55.179Z,88.87
2023-03-19T04:41:58.082Z,89.74
2023-03-19T04:45:02.400Z,89.94
2023-03-19T04:48:05.712Z,89.92
2023-03-19T04:51:09.631Z,89.92
2023-03-19T04:54:12.523Z,90.17
2023-03-19T04:57:15.234Z,89.75
2023-03-19T05:00:20.521Z,90.34
2023-03-19T05:03:23.440Z,90.17
2023-03-19T05:06:27.164Z,89.94
2023-03-19T05:09:30.891Z,90.30
2023-03-19T05:12:33.824Z,89.97
2023-03-19T05:15:38.879Z,90.19
2023-03-19T05:18:43.007Z,89.89
2023-03-19T05:21:45.792Z,89.94
2023-03-19T05:24:48.601Z,89.62
2023-03-19T05:27:51.749Z,89.37
2023-03-19T05:30:56.035Z,89.63
2023-03-19T05:33:58.774Z,89.04
2023-03-19T05:37:01.458Z,89.30
2023-03-19T05:40:04.537Z,89.11
2023-03-19T05:43:07.631Z,89.70
2023-03-19T05:46:11.817Z,89.10
2023-03-19T05:49:14.867Z,89.28
2023-03-19T05:52:17.656Z,89.86
2023-03-19T05:55:20.733Z,89.87
2023-03-19T05:58:23.833Z,90.03
2023-03-19T06:01:28.315Z,90.50
2023-03-19T06:04:31.223Z,90.05
2023-03-19T06:07:34.226Z,90.15
2023-03-19T06:10:37.229Z,90.09
2023-03-19T06:13:40.462Z,89.83
2023-03-19T06:16:44.652Z,89.01
2023-03-19T06:19:47.414Z,89.98
2023-03-19T06:22:50.368Z,89.84
2023-03-19T06:25:53.163Z,89.99
2023-03-19T06:28:55.883Z,90.03
2023-03-19T06:32:00.683Z,89.18
2023-03-19T06:35:03.703Z,89.54
2023-03-19T06:38:07.400Z,89.49
2023-03-19T06:41:10.208Z,89.10
2023-03-19T06:44:12.962Z,88.82
2023-03-19T06:47:17.163Z,89.28
2023-03-19T06:50:20.119Z,89.06
2023-03-19T06:53:22.894Z,89.55
2023-03-19T06:56:26.138Z,89.66
2023-03-19T06:59:28.995Z,90.69
2023-03-19T07:02:33.095Z,90.43
2023-03-19T07:05:35.944Z,90.67
2023-03-19T07:08:38.918Z,89.79
2023-03-19T07:11:42.053Z,89.18
2023-03-19T07:14:44.706Z,88.12
2023-03-19T07:17:49.824Z,87.33
2023-03-19T07:20:52.979Z,86.44
2023-03-19T07:23:55.679Z,85.67
2023-03-19T07:26:58.819Z,85.60
2023-03-19T07:30:01.679Z,84.00
2023-03-19T07:33:07.229Z,83.36
2023-03-19T07:36:11.277Z,84.11
2023-03-19T07:39:14.450Z,82.71
2023-03-19T07:42:17.589Z,81.22
2023-03-19T07:45:20.670Z,80.65
2023-03-19T07:48:24.725Z,80.59
2023-03-19T07:51:27.538Z,81.08
2023-03-19T07:54:31.328Z,80.14
2023-03-19T07:57:34.024Z,79.90
2023-03-19T08:00:37.033Z,79.39
2023-03-19T08:03:41.666Z,78.62
2023-03-19T08:06:44.593Z,77.56
2023-03-19T08:09:47.514Z,77.09
2023-03-19T08:12:50.546Z,78.20
2023-03-19T08:15:53.673Z,78.83
2023-03-19T08:18:57.920Z,77.83
2023-03-19T08:22:00.823Z,76.75
2023-03-19T08:25:03.878Z,76.32
2023-03-19T08:28:09.775Z,75.90
2023-03-19T08:31:14.460Z,73.11
2023-03-19T08:34:18.840Z,73.28
2023-03-19T08:37:21.849Z,71.54
2023-03-19T08:40:25.313Z,72.18
2023-03-19T08:43:28.100Z,72.69
2023-03-19T08:46:31.276Z,72.34
2023-03-19T08:49:35.628Z,70.57
2023-03-19T08:52:40.339Z,71.51
2023-03-19T08:55:44.091Z,71.31
2023-03-19T08:58:46.977Z,69.68
2023-03-19T09:01:52.619Z,69.68
2023-03-19T09:04:56.983Z,70.00
2023-03-19T09:08:00.184Z,67.90
2023-03-19T09:11:03.153Z,65.45
2023-03-19T09:14:05.897Z,61.88
2023-03-19T09:17:09.337Z,60.46
2023-03-19T09:20:14.156Z,59.81
2023-03-19T09:23:16.874Z,58.15
2023-03-19T09:26:19.571Z,57.59
2023-03-19T09:29:22.583Z,56.77
2023-03-19T09:32:25.878Z,55.76
2023-03-19T09:35:31.460Z,55.79
2023-03-19T09:38:34.652Z,56.28
2023-03-19T09:41:47.671Z,55.57
2023-03-19T09:44:53.628Z,54.98
2023-03-19T09:48:04.300Z,54.15
2023-03-19T09:51:16.093Z,52.57
2023-03-19T09:54:28.767Z,49.59
2023-03-19T09:57:33.231Z,51.29
2023-03-19T10:00:38.204Z,51.67
2023-03-19T10:03:47.356Z,50.54
2023-03-19T10:07:00.543Z,50.56
2023-03-19T10:10:33.682Z,49.27
2023-03-19T10:13:54.508Z,48.28
2023-03-19T10:17:01.955Z,49.48
2023-03-19T10:20:10.545Z,48.49
2023-03-19T10:23:42.789Z,46.97
2023-03-19T10:26:47.318Z,48.64
2023-03-19T10:29:50.242Z,46.83
2023-03-19T10:32:58.947Z,46.98
2023-03-19T10:36:06.989Z,46.08
2023-03-19T10:39:14.428Z,41.44
2023-03-19T10:42:41.227Z,41.92
2023-03-19T10:45:44.349Z,40.38
2023-03-19T10:48:47.657Z,40.24
2023-03-19T10:51:51.047Z,41.75
2023-03-19T10:55:02.208Z,40.71
2023-03-19T10:58:07.348Z,39.72
2023-03-19T11:01:13.583Z,40.88
2023-03-19T11:04:19.803Z,40.59
2023-03-19T11:07:34.673Z,40.87
2023-03-19T11:10:48.048Z,41.74
2023-03-19T11:13:50.968Z,41.50
2023-03-19T11:16:58.411Z,42.56
2023-03-19T11:20:19.316Z,42.41
2023-03-19T11:23:22.248Z,42.32
2023-03-19T11:26:28.651Z,42.97
2023-03-19T11:29:32.183Z,42.86
2023-03-19T11:33:04.942Z,43.83
2023-03-19T11:36:13.996Z,43.51
2023-03-19T11:39:28.111Z,44.35
2023-03-19T11:42:47.154Z,42.98
2023-03-19T11:46:01.120Z,43.32
2023-03-19T11:49:22.178Z,42.92
2023-03-19T11:52:32.005Z,42.13
2023-03-19T11:55:42.403Z,41.09
2023-03-19T11:59:07.905Z,40.81
2023-03-19T12:02:37.919Z,42.10
2023-03-19T12:05:50.839Z,42.75
2023-03-19T12:09:01.064Z,41.60
2023-03-19T12:12:15.338Z,42.07
2023-03-19T12:15:25.933Z,42.27
2023-03-19T12:18:47.103Z,40.38
2023-03-19T12:22:00.178Z,40.69
2023-03-19T12:25:24.099Z,42.12
2023-03-19T12:28:30.546Z,41.64
2023-03-19T12:31:52.201Z,41.68
2023-03-19T12:34:58.567Z,43.54
2023-03-19T12:38:08.070Z,42.11
2023-03-19T12:41:12.972Z,44.52
2023-03-19T12:44:21.917Z,47.83
2023-03-19T12:47:31.302Z,48.47
2023-03-19T12:50:39.629Z,49.67
2023-03-19T12:53:48.540Z,51.61
2023-03-19T12:56:59.636Z,51.78
2023-03-19T13:00:07.848Z,52.32
2023-03-19T13:03:19.334Z,52.94
2023-03-19T13:06:28.158Z,55.00
2023-03-19T13:09:35.326Z,59.34
2023-03-19T13:12:39.684Z,60.87
2023-03-19T13:15:48.345Z,61.42
2023-03-19T13:19:03.589Z,63.04
2023-03-19T13:22:11.962Z,64.00
2023-03-19T13:25:21.080Z,66.21
2023-03-19T13:28:29.768Z,66.81
2023-03-19T13:31:36.878Z,68.39
2023-03-19T13:34:41.357Z,66.60
2023-03-19T13:37:45.298Z,69.68
2023-03-19T13:40:50.416Z,71.97
2023-03-19T13:43:54.317Z,72.61
2023-03-19T13:46:57.733Z,70.08
2023-03-19T13:50:25.112Z,69.66
2023-03-19T13:53:40.883Z,71.47
2023-03-19T13:57:31.377Z,72.61
2023-03-19T14:00:58.329Z,71.35
2023-03-19T14:04:04.084Z,69.61
2023-03-19T14:07:20.328Z,68.57
2023-03-19T14:10:29.661Z,69.79
2023-03-19T14:13:36.221Z,69.11
2023-03-19T14:16:43.565Z,67.40
2023-03-19T14:19:46.894Z,67.94
2023-03-19T14:23:12.984Z,65.63
2023-03-19T14:26:19.528Z,65.12
2023-03-19T14:29:26.432Z,64.00
2023-03-19T14:32:35.446Z,61.95
2023-03-19T14:35:45.404Z,62.89
2023-03-19T14:38:53.111Z,62.89
2023-03-19T14:42:01.821Z,63.12
2023-03-19T14:45:44.171Z,61.31
2023-03-19T14:49:17.319Z,61.51
2023-03-19T14:52:24.013Z,62.06
2023-03-19T14:55:37.258Z,62.09
2023-03-19T14:58:49.923Z,62.25
2023-03-19T15:01:54.596Z,59.59
2023-03-19T15:05:00.510Z,60.04
2023-03-19T15:08:06.210Z,61.22
2023-03-19T15:11:25.631Z,62.55
2023-03-19T15:14:49.087Z,62.78
2023-03-19T15:18:03.855Z,62.56
2023-03-19T15:21:07.914Z,62.64
2023-03-19T15:24:17.379Z,63.29
2023-03-19T15:27:22.973Z,63.81
2023-03-19T15:30:29.272Z,63.48
2023-03-19T15:33:40.872Z,63.24
2023-03-19T15:36:45.422Z,64.62
2023-03-19T15:39:52.735Z,65.42
2023-03-19T15:42:59.507Z,64.66
2023-03-19T15:46:02.860Z,64.27
2023-03-19T15:49:11.204Z,65.13
2023-03-19T15:52:19.393Z,64.57
2023-03-19T15:55:22.409Z,66.04
2023-03-19T15:58:30.186Z,68.13
2023-03-19T16:01:34.982Z,69.97
2023-03-19T16:05:01.913Z,71.19
2023-03-19T16:08:02.364Z,71.95
2023-03-19T16:11:17.237Z,72.17
2023-03-19T16:14:27.430Z,73.80
2023-03-19T16:17:36.262Z,76.21
2023-03-19T16:20:45.445Z,78.18
2023-03-19T16:23:53.957Z,79.04
2023-03-19T16:26:58.648Z,77.81
2023-03-19T16:30:03.562Z,78.43
2023-03-19T16:33:07.649Z,78.82
2023-03-19T16:36:14.270Z,77.06
2023-03-19T16:39:39.087Z,78.04
2023-03-19T16:42:43.206Z,77.60
2023-03-19T16:46:33.222Z,76.43
2023-03-19T16:50:01.410Z,77.61
2023-03-19T17:02:25.086Z,75.41
2023-03-19T17:05:29.625Z,76.43
2023-03-19T17:18:00.633Z,80.15
2023-03-19T17:26:42.918Z,80.50
2023-03-19T17:29:46.125Z,79.91
2023-03-19T17:32:50.981Z,78.07
2023-03-19T17:35:56.805Z,76.87
2023-03-19T17:38:59.523Z,77.26
2023-03-19T17:42:02.186Z,77.89
2023-03-19T17:45:05.324Z,78.06
2023-03-19T17:48:15.701Z,79.34
2023-03-19T17:51:20.536Z,80.87
2023-03-19T17:54:25.783Z,81.77
2023-03-19T17:57:28.376Z,83.78
2023-03-19T18:00:31.212Z,85.19
2023-03-19T18:03:36.217Z,86.67
2023-03-19T18:06:43.022Z,87.03
2023-03-19T18:09:45.787Z,88.18
2023-03-19T18:12:49.311Z,87.95
2023-03-19T18:15:51.993Z,88.31
2023-03-19T18:18:55.201Z,88.48
2023-03-19T18:21:59.398Z,88.49
2023-03-19T18:25:02.083Z,88.68
2023-03-19T18:28:05.260Z,88.91
2023-03-19T18:31:15.532Z,89.22
2023-03-19T18:34:18.744Z,89.22
2023-03-19T18:37:23.163Z,89.27
2023-03-19T18:40:27.985Z,89.96
2023-03-19T18:43:30.777Z,90.04
2023-03-19T18:46:34.962Z,89.58
2023-03-19T18:49:37.623Z,89.98
2023-03-19T18:52:41.895Z,89.45
2023-03-19T18:55:45.183Z,89.16
2023-03-19T18:58:48.668Z,89.09
2023-03-19T19:01:52.233Z,89.13
2023-03-19T19:04:54.916Z,88.52
2023-03-19T19:08:00.937Z,88.80
2023-03-19T19:11:05.566Z,88.73
2023-03-19T19:14:16.547Z,87.54
2023-03-19T19:17:24.050Z,86.69
2023-03-19T19:20:28.380Z,86.06
2023-03-19T19:23:32.540Z,85.77
2023-03-19T19:26:37.090Z,86.73
2023-03-19T19:29:39.743Z,86.22
2023-03-19T19:32:42.531Z,86.37
2023-03-19T19:35:45.524Z,85.73
2023-03-19T19:38:51.884Z,85.04
2023-03-19T19:41:56.062Z,85.60
2023-03-19T19:44:59.319Z,83.86
2023-03-19T19:48:01.933Z,83.19
2023-03-19T19:51:04.773Z,84.26
2023-03-19T19:54:08.763Z,84.41
2023-03-19T19:57:19.244Z,84.82
2023-03-19T20:00:23.679Z,85.65
2023-03-19T20:03:28.282Z,86.22
2023-03-19T20:06:30.944Z,87.13
2023-03-19T20:09:34.973Z,88.04
2023-03-19T20:12:37.651Z,88.76
2023-03-19T20:15:40.311Z,90.00
2023-03-19T20:18:43.558Z,90.66
2023-03-19T20:21:46.516Z,90.35
2023-03-19T20:24:51.597Z,90.81
2023-03-19T20:27:58.151Z,91.88
2023-03-19T20:31:01.526Z,91.85
2023-03-19T20:34:04.167Z,91.11
2023-03-19T20:37:06.839Z,91.13
2023-03-19T20:40:12.428Z,91.12
2023-03-19T20:43:27.952Z,90.04
2023-03-19T20:46:31.194Z,90.80
2023-03-19T20:49:33.791Z,90.84
2023-03-19T20:52:36.441Z,91.59
2023-03-19T20:55:42.527Z,91.77
2023-03-19T20:58:46.438Z,91.65
2023-03-19T21:01:49.142Z,92.62
2023-03-19T21:04:51.892Z,92.64
2023-03-19T21:07:55.516Z,92.90
2023-03-19T21:10:59.842Z,92.80
2023-03-19T21:14:02.671Z,92.33
2023-03-19T21:17:05.405Z,91.87
2023-03-19T21:20:08.927Z,91.00
2023-03-19T21:23:19.674Z,88.69
2023-03-19T21:26:27.407Z,86.63
2023-03-19T21:29:34.259Z,85.64
2023-03-19T21:32:37.031Z,85.31
2023-03-19T21:35:39.907Z,86.59
2023-03-19T21:38:43.603Z,87.41
2023-03-19T21:41:48.324Z,88.58
2023-03-19T21:44:57.820Z,89.40
2023-03-19T21:48:21.012Z,89.95
2023-03-19T21:51:25.074Z,90.90
2023-03-19T21:54:27.857Z,91.78
2023-03-19T21:57:32.519Z,91.91
2023-03-19T22:00:36.088Z,92.19
2023-03-19T22:03:38.879Z,91.66
2023-03-19T22:06:43.031Z,91.80
2023-03-19T22:09:46.366Z,92.01
2023-03-19T22:12:51.165Z,92.91
2023-03-19T22:15:55.625Z,92.45
2023-03-19T22:18:58.658Z,92.60
2023-03-19T22:22:01.758Z,92.77
2023-03-19T22:25:04.689Z,92.46
2023-03-19T22:28:16.658Z,92.99
2023-03-19T22:31:19.529Z,92.94
2023-03-19T22:34:24.513Z,92.55
2023-03-19T22:37:28.728Z,92.21
2023-03-19T22:40:31.518Z,91.93
2023-03-19T22:43:37.329Z,91.94
2023-03-19T22:46:40.226Z,91.06
2023-03-19T22:49:44.984Z,91.48
2023-03-19T22:52:47.794Z,91.93
2023-03-19T22:55:50.578Z,91.46
2023-03-19T22:58:54.733Z,91.55
2023-03-19T23:01:58.088Z,91.33
2023-03-19T23:05:02.333Z,90.35
2023-03-19T23:08:06.751Z,90.53
2023-03-19T23:11:09.640Z,88.19
2023-03-19T23:14:26.361Z,86.92
2023-03-19T23:17:31.490Z,86.88
2023-03-19T23:20:34.408Z,87.65
2023-03-19T23:23:37.573Z,88.25
2023-03-19T23:26:44.323Z,88.22
2023-03-19T23:29:48.395Z,88.11
2023-03-19T23:32:51.410Z,88.47
2023-03-19T23:35:55.048Z,87.84
2023-03-19T23:38:59.294Z,88.12
2023-03-19T23:42:02.163Z,88.36
2023-03-19T23:45:07.863Z,87.80
2023-03-19T23:48:15.286Z,88.54
2023-03-19T23:51:18.268Z,88.55
2023-03-19T23:54:29.966Z,88.38
2023-03-19T23:57:33.209Z,88.71
